createdAt,value
2019-05-22T00:03:17.341Z,100951.34
2019-05-22T00:08:21.450Z,100953.81
2019-05-22T00:13:30.037Z,100964.61
2019-05-22T00:18:32.843Z,100969.18
2019-05-22T00:23:38.267Z,100965.06
2019-05-22T00:28:40.975Z,100968.80
2019-05-22T00:33:43.671Z,100980.91
2019-05-22T00:38:47.498Z,100979.73
2019-05-22T00:43:51.034Z,100968.59
2019-05-22T00:48:53.934Z,100974.02
2019-05-22T00:54:21.188Z,100972.20
2019-05-22T00:59:30.974Z,100982.11
2019-05-22T01:04:35.347Z,100980.57
2019-05-22T01:09:41.078Z,100989.20
2019-05-22T01:14:45.144Z,100994.77
2019-05-22T01:19:51.378Z,100999.33
2019-05-22T01:24:56.252Z,101005.73
2019-05-22T01:30:02.361Z,101009.87
2019-05-22T01:35:08.814Z,101023.14
2019-05-22T01:40:21.953Z,101021.16
2019-05-22T01:45:25.786Z,101016.26
2019-05-22T01:50:47.298Z,101020.27
2019-05-22T01:55:56.604Z,101026.98
2019-05-22T02:01:02.289Z,101026.27
2019-05-22T02:06:06.842Z,101029.96
2019-05-22T02:11:14.183Z,101030.09
2019-05-22T02:16:18.075Z,101029.89
2019-05-22T02:21:21.971Z,101021.27
2019-05-22T02:26:24.690Z,101024.91
2019-05-22T02:31:29.887Z,101032.73
2019-05-22T02:36:36.478Z,101032.64
2019-05-22T02:41:47.712Z,101041.99
2019-05-22T02:46:52.537Z,101046.41
2019-05-22T02:51:56.587Z,101049.31
2019-05-22T02:57:00.437Z,101056.16
2019-05-22T03:02:04.147Z,101062.75
2019-05-22T03:07:09.253Z,101064.10
2019-05-22T03:12:19.540Z,101069.86
2019-05-22T03:17:30.026Z,101070.03
2019-05-22T03:22:41.601Z,101072.56
2019-05-22T03:27:49.640Z,101066.81
2019-05-22T03:32:54.703Z,101077.41
2019-05-22T03:37:59.313Z,101089.47
2019-05-22T03:43:16.000Z,101093.57
2019-05-22T03:48:23.104Z,101098.91
2019-05-22T03:53:26.519Z,101103.41
2019-05-22T03:58:29.840Z,101099.20
2019-05-22T04:03:34.446Z,101106.66
2019-05-22T04:08:40.159Z,101106.23
2019-05-22T04:13:43.668Z,101107.75
2019-05-22T04:18:47.573Z,101114.70
2019-05-22T04:23:50.819Z,101115.51
2019-05-22T04:28:54.351Z,101128.35
2019-05-22T04:33:57.755Z,101132.31
2019-05-22T04:39:08.641Z,101127.20
2019-05-22T04:44:11.673Z,101129.31
2019-05-22T04:49:14.681Z,101132.81
2019-05-22T04:54:17.690Z,101137.50
2019-05-22T04:59:20.982Z,101137.71
2019-05-22T05:04:23.833Z,101143.30
2019-05-22T05:09:26.846Z,101144.48
2019-05-22T05:14:29.951Z,101145.36
2019-05-22T05:19:32.966Z,101146.08
2019-05-22T05:24:35.688Z,101150.45
2019-05-22T05:29:38.600Z,101158.10
2019-05-22T05:34:59.542Z,101159.28
2019-05-22T05:40:32.922Z,101175.30
2019-05-22T05:45:38.091Z,101176.82
2019-05-22T05:51:27.003Z,101190.92
2019-05-22T05:56:32.845Z,101193.09
2019-05-22T06:01:39.747Z,101190.19
2019-05-22T06:07:22.116Z,101193.41
2019-05-22T06:12:24.860Z,101200.08
2019-05-22T06:18:33.771Z,101205.18
2019-05-22T06:24:25.245Z,101214.24
2019-05-22T06:29:56.539Z,101218.77
2019-05-22T06:34:59.829Z,101220.78
2019-05-22T06:40:05.031Z,101238.91
2019-05-22T06:45:09.540Z,101243.14
2019-05-22T06:50:12.350Z,101249.47
2019-05-22T06:55:15.638Z,101256.68
2019-05-22T07:00:21.526Z,101262.03
2019-05-22T07:05:24.513Z,101259.26
2019-05-22T07:10:27.715Z,101261.02
2019-05-22T07:15:51.482Z,101268.42
2019-05-22T07:20:54.483Z,101270.30
2019-05-22T07:25:58.958Z,101279.16
2019-05-22T07:31:03.670Z,101285.36
2019-05-22T07:36:10.868Z,101281.21
2019-05-22T07:41:11.802Z,101278.20
2019-05-22T07:46:14.672Z,101289.86
2019-05-22T07:51:18.550Z,101297.98
2019-05-22T07:56:22.030Z,101294.30
2019-05-22T08:01:25.725Z,101295.27
2019-05-22T08:06:28.728Z,101302.59
2019-05-22T08:11:31.850Z,101310.22
2019-05-22T08:16:35.695Z,101316.95
2019-05-22T08:21:39.412Z,101312.16
2019-05-22T08:26:53.984Z,101314.46
2019-05-22T08:31:47.104Z,101321.59
2019-05-22T08:36:50.208Z,101331.48
2019-05-22T08:41:53.321Z,101332.53
2019-05-22T08:46:56.333Z,101332.61
2019-05-22T08:51:59.501Z,101338.99
2019-05-22T08:57:04.312Z,101341.55
2019-05-22T09:02:08.933Z,101339.84
2019-05-22T09:07:11.743Z,101341.81
2019-05-22T09:12:16.348Z,101349.36
2019-05-22T09:17:20.647Z,101352.52
2019-05-22T09:22:39.639Z,101362.41
2019-05-22T09:27:28.792Z,101371.57
2019-05-22T09:32:31.563Z,101374.66
2019-05-22T09:37:34.347Z,101374.88
2019-05-22T09:42:37.541Z,101377.66
2019-05-22T09:47:40.378Z,101388.21
2019-05-22T09:52:56.921Z,101384.04
2019-05-22T09:57:50.709Z,101393.09
2019-05-22T10:02:53.615Z,101386.74
2019-05-22T10:08:01.628Z,101393.64
2019-05-22T10:13:05.018Z,101394.86
2019-05-22T10:18:08.617Z,101396.97
2019-05-22T10:23:15.860Z,101408.68
2019-05-22T10:28:16.638Z,101415.48
2019-05-22T10:33:19.438Z,101410.20
2019-05-22T10:38:22.630Z,101419.75
2019-05-22T10:43:25.763Z,101417.07
2019-05-22T10:48:28.679Z,101420.14
2019-05-22T10:53:34.173Z,101423.27
2019-05-22T10:58:36.094Z,101417.81
2019-05-22T11:03:39.927Z,101422.23
2019-05-22T11:08:43.911Z,101420.63
2019-05-22T11:14:00.577Z,101425.23
2019-05-22T11:18:54.155Z,101429.05
2019-05-22T11:23:57.169Z,101433.80
2019-05-22T11:29:01.867Z,101436.63
2019-05-22T11:34:06.082Z,101433.92
2019-05-22T11:39:14.000Z,101432.91
2019-05-22T11:44:18.748Z,101437.48
2019-05-22T11:49:22.237Z,101434.09
2019-05-22T11:54:25.313Z,101432.30
2019-05-22T11:59:28.131Z,101435.39
2019-05-22T12:04:46.546Z,101439.87
2019-05-22T12:09:36.765Z,101434.83
2019-05-22T12:14:39.864Z,101430.76
2019-05-22T12:19:42.878Z,101437.37
2019-05-22T12:24:45.879Z,101441.56
2019-05-22T12:29:49.181Z,101443.74
2019-05-22T12:34:51.993Z,101438.73
2019-05-22T12:39:55.291Z,101434.14
2019-05-22T12:44:58.216Z,101441.72
2019-05-22T12:50:02.740Z,101445.85
2019-05-22T12:55:06.852Z,101448.19
2019-05-22T13:00:11.510Z,101441.09
2019-05-22T13:05:15.448Z,101442.49
2019-05-22T13:10:21.578Z,101434.07
2019-05-22T13:15:25.444Z,101447.39
2019-05-22T13:20:42.450Z,101433.58
2019-05-22T13:25:39.177Z,101427.88
2019-05-22T13:31:02.990Z,101432.59
2019-05-22T13:36:08.468Z,101428.39
2019-05-22T13:41:11.573Z,101421.25
2019-05-22T13:46:14.868Z,101414.36
2019-05-22T13:51:18.071Z,101422.34
2019-05-22T13:56:25.343Z,101414.72
2019-05-22T14:01:27.511Z,101427.58
2019-05-22T14:06:31.096Z,101423.52
2019-05-22T14:11:34.271Z,101421.99
2019-05-22T14:16:48.120Z,101425.78
2019-05-22T14:21:49.818Z,101422.89
2019-05-22T14:26:46.903Z,101411.68
2019-05-22T14:31:49.847Z,101415.92
2019-05-22T14:36:52.864Z,101414.28
2019-05-22T14:41:56.100Z,101412.30
2019-05-22T14:47:12.295Z,101405.44
2019-05-22T14:52:05.477Z,101411.48
2019-05-22T14:57:09.003Z,101399.48
2019-05-22T15:02:11.805Z,101407.89
2019-05-22T15:07:14.529Z,101393.95
2019-05-22T15:12:17.333Z,101398.80
2019-05-22T15:17:31.650Z,101394.17
2019-05-22T15:22:25.487Z,101388.09
2019-05-22T15:27:28.289Z,101389.26
2019-05-22T15:32:30.988Z,101386.44
2019-05-22T15:37:35.473Z,101389.77
2019-05-22T15:42:41.378Z,101386.81
2019-05-22T15:47:54.238Z,101312.30
2019-05-22T15:52:54.854Z,101385.55
2019-05-22T15:57:59.237Z,101386.53
2019-05-22T16:03:10.234Z,101380.80
2019-05-22T16:08:15.200Z,101393.41
2019-05-22T16:13:21.505Z,101380.70
2019-05-22T16:18:28.799Z,101367.14
2019-05-22T16:23:35.408Z,101362.14
2019-05-22T16:28:41.810Z,101369.00
2019-05-22T16:33:46.613Z,101365.23
2019-05-22T16:38:51.097Z,101360.05
2019-05-22T16:43:54.591Z,101364.77
2019-05-22T16:48:57.500Z,101362.73
2019-05-22T16:54:06.497Z,101362.27
2019-05-22T16:59:11.306Z,101366.73
2019-05-22T17:04:15.437Z,101357.06
2019-05-22T17:09:18.760Z,101366.06
2019-05-22T17:14:22.946Z,101363.92
2019-05-22T17:19:27.805Z,101361.50
2019-05-22T17:24:34.145Z,101365.03
2019-05-22T17:29:35.901Z,101364.22
2019-05-22T17:34:39.252Z,101366.52
2019-05-22T17:39:46.055Z,101370.89
2019-05-22T17:44:50.937Z,101373.46
2019-05-22T17:49:55.491Z,101374.20
2019-05-22T17:54:58.310Z,101366.98
2019-05-22T18:00:03.008Z,101368.70
2019-05-22T18:05:07.883Z,101367.47
2019-05-22T18:10:12.665Z,101370.87
2019-05-22T18:15:16.787Z,101380.71
2019-05-22T18:20:21.291Z,101381.66
2019-05-22T18:25:25.101Z,101379.45
2019-05-22T18:30:28.329Z,101383.50
2019-05-22T18:35:31.157Z,101382.89
2019-05-22T18:40:33.963Z,101385.45
2019-05-22T18:45:38.215Z,101388.23
2019-05-22T18:50:41.217Z,101390.64
2019-05-22T18:55:44.213Z,101387.91
2019-05-22T19:00:47.060Z,101398.57
2019-05-22T19:05:50.095Z,101402.61
2019-05-22T19:10:53.100Z,101399.95
2019-05-22T19:15:55.987Z,101406.34
2019-05-22T19:21:00.196Z,101398.69
2019-05-22T19:26:05.730Z,101407.41
2019-05-22T19:31:08.117Z,101410.07
2019-05-22T19:36:11.080Z,101417.81
2019-05-22T19:41:14.317Z,101415.41
2019-05-22T19:46:17.520Z,101414.86
2019-05-22T19:51:20.847Z,101421.04
2019-05-22T19:56:24.127Z,101427.25
2019-05-22T20:01:28.548Z,101431.96
2019-05-22T20:06:31.762Z,101436.28
2019-05-22T20:11:34.471Z,101444.78
2019-05-22T20:16:37.583Z,101450.92
2019-05-22T20:21:41.012Z,101450.08
2019-05-22T20:26:44.058Z,101458.75
2019-05-22T20:31:47.561Z,101463.56
2019-05-22T20:36:50.352Z,101476.05
2019-05-22T20:41:53.496Z,101466.36
2019-05-22T20:46:56.607Z,101473.87
2019-05-22T20:51:59.529Z,101475.33
2019-05-22T20:57:04.180Z,101471.83
2019-05-22T21:02:08.315Z,101470.87
2019-05-22T21:07:12.136Z,101470.99
2019-05-22T21:12:16.548Z,101471.29
2019-05-22T21:17:19.550Z,101477.43
2019-05-22T21:22:24.449Z,101474.19
2019-05-22T21:27:27.610Z,101484.34
2019-05-22T21:32:30.419Z,101486.37
2019-05-22T21:37:33.138Z,101489.26
2019-05-22T21:42:41.096Z,101493.05
2019-05-22T21:47:44.027Z,101495.45
2019-05-22T21:52:46.934Z,101493.12
2019-05-22T21:57:50.276Z,101498.19
2019-05-22T22:02:55.274Z,101494.17
2019-05-22T22:07:58.785Z,101500.46
2019-05-22T22:13:01.966Z,101498.01
2019-05-22T22:18:07.801Z,101507.43
2019-05-22T22:23:14.031Z,101505.09
2019-05-22T22:28:17.765Z,101509.42
2019-05-22T22:33:27.475Z,101514.83
2019-05-22T22:38:32.273Z,101517.94
2019-05-22T22:43:38.673Z,101514.97
2019-05-22T22:48:43.293Z,101523.68
2019-05-22T22:53:45.992Z,101532.39
2019-05-22T22:58:48.699Z,101526.09
2019-05-22T23:03:56.109Z,101528.41
2019-05-22T23:08:59.121Z,101533.02
2019-05-22T23:14:02.551Z,101529.67
2019-05-22T23:19:40.921Z,101533.25
2019-05-22T23:24:45.510Z,101534.84
2019-05-22T23:29:50.415Z,101535.34
2019-05-22T23:34:54.788Z,101533.28
2019-05-22T23:39:58.719Z,101529.94
2019-05-22T23:45:06.295Z,101526.55
2019-05-22T23:50:09.396Z,101525.91
2019-05-22T23:55:14.007Z,101523.59
